Tisbury, United Kingdom
Current Conditions -  °F | °C
As of 12:50 AM on Friday 28 Nov 2014 (Local Time) from EGDM Reporting Station
Haze Haze  
Wind Chill: 41°   Ceiling: 12000
Heat Index: 46°   Visibility: 3mi
Dew Point: 46°   Wind: 12mph
Humidity: 100%   Direction: 80°E
Pressure: 29.5"   Gusts: NA
Location:  51.06°N, 2.08°W
Report Text: EGDM 280050Z AUTO 08010KT 5000 BR BKN120/// 08/08 Q0999
Loading
Personal Weather Stations






























Interactive Weather Map New forecast layout! Learn more

10-Day Weather Forecast

Advertisements
Track Severe Weather on mobile